Kleberg, Texas
Current Conditions -  °F | °C
As of 2:50 PM on Friday 31 Oct 2014 (Local Time) from KHQZ Reporting Station
Clear Clear  
Wind Chill: 64°   Ceiling: Unl
Heat Index: 64°   Visibility: 10mi
Dew Point: 39°   Wind: 16mph
Humidity: 40%   Direction: 340°NNW
Pressure: 30.29"   Gusts: 23mph
Location:  32.6719°N, 96.62°W
Report Text: KHQZ 311950Z 34014G20KT 10SM CLR 18/04 A3029
Loading
Personal Weather Stations






























Interactive Weather Map
Tropical Storm Tracking
New forecast layout! Learn more

10-Day Weather Forecast

Advertisements
Track Severe Weather on mobile